Time;durP1;ratioP1;P1;durP2;ratioP2;P2;SDS_P1;SDS_P2;PMS_P1;PMS_P2;Temp;Humidity;BMP_temperature;BMP_pressure;BME280_temperature;BME280_humidity;BME280_pressure;Samples;Min_cycle;Max_cycle;Signal;HPM_P1;HPM_P2
2023/09/09 00:00:52;;;;;;;15.38;8.35;;;20.20;99.90;;;;;;4961890;28;20023;-75
2023/09/09 00:03:27;;;;;;;10.20;7.28;;;20.20;99.90;;;;;;4950534;28;20067;-75
2023/09/09 00:05:53;;;;;;;9.75;7.38;;;20.30;99.90;;;;;;4950090;28;20391;-75
2023/09/09 00:08:19;;;;;;;12.70;7.95;;;20.20;99.90;;;;;;4948090;28;20024;-75
2023/09/09 00:10:45;;;;;;;9.82;7.40;;;20.20;99.90;;;;;;4965397;28;20031;-75
2023/09/09 00:13:16;;;;;;;11.93;8.18;;;20.20;99.90;;;;;;4948500;29;20031;-74
2023/09/09 00:15:45;;;;;;;11.20;7.60;;;20.10;99.90;;;;;;4949915;28;20312;-75
2023/09/09 00:18:17;;;;;;;10.40;8.52;;;20.10;99.90;;;;;;4962761;28;20031;-75
2023/09/09 00:20:45;;;;;;;10.45;8.25;;;20.10;99.90;;;;;;4965486;28;20110;-75
2023/09/09 00:23:20;;;;;;;11.73;9.07;;;20.10;99.90;;;;;;4948682;28;20038;-75
2023/09/09 00:25:46;;;;;;;15.38;9.10;;;20.00;99.90;;;;;;4950513;28;20363;-74
2023/09/09 00:28:13;;;;;;;13.07;9.13;;;20.00;99.90;;;;;;4951224;28;20114;-75
2023/09/09 00:30:39;;;;;;;16.45;9.15;;;20.00;99.90;;;;;;4946537;29;20027;-75
2023/09/09 00:33:11;;;;;;;13.23;9.77;;;19.90;99.90;;;;;;4963647;28;20027;-75
2023/09/09 00:35:38;;;;;;;11.95;9.05;;;19.90;99.90;;;;;;4948349;28;20030;-75
2023/09/09 00:38:11;;;;;;;14.32;8.73;;;19.90;99.90;;;;;;4952229;28;20479;-75
2023/09/09 00:40:37;;;;;;;11.37;8.80;;;19.80;99.90;;;;;;4963432;28;20023;-76
2023/09/09 00:43:05;;;;;;;12.18;8.98;;;19.80;99.90;;;;;;4947749;28;20086;-76
2023/09/09 00:45:34;;;;;;;11.55;8.93;;;19.80;99.90;;;;;;4945216;28;20517;-76
2023/09/09 00:48:00;;;;;;;13.45;9.65;;;19.80;99.90;;;;;;4948085;28;20050;-76
2023/09/09 00:50:29;;;;;;;11.48;8.88;;;19.80;99.90;;;;;;4945687;28;20024;-76
2023/09/09 00:53:10;;;;;;;11.20;8.98;;;19.70;99.90;;;;;;4950014;29;20374;-75
2023/09/09 00:55:39;;;;;;;13.80;9.48;;;19.70;99.90;;;;;;4949619;28;20027;-75
2023/09/09 00:58:10;;;;;;;15.63;9.50;;;19.70;99.90;;;;;;4951737;28;20063;-75
2023/09/09 01:00:45;;;;;;;12.27;9.85;;;19.60;99.90;;;;;;4951970;28;20081;-75
2023/09/09 01:03:11;;;;;;;12.38;8.68;;;19.70;99.90;;;;;;4954199;28;20090;-75
2023/09/09 01:05:40;;;;;;;10.45;8.48;;;19.60;99.90;;;;;;4953840;28;20423;-74
2023/09/09 01:08:12;;;;;;;15.15;9.23;;;19.60;99.90;;;;;;4954830;29;20023;-75
2023/09/09 01:10:37;;;;;;;11.63;9.25;;;19.50;99.90;;;;;;4953129;29;20024;-74
2023/09/09 01:13:06;;;;;;;12.10;8.65;;;19.50;99.90;;;;;;4952094;28;20038;-74
2023/09/09 01:15:47;;;;;;;12.10;8.95;;;19.50;99.90;;;;;;4950491;28;20023;-74
2023/09/09 01:18:13;;;;;;;11.95;9.05;;;19.40;99.90;;;;;;4952035;29;20027;-75
2023/09/09 01:20:43;;;;;;;16.50;10.32;;;19.40;99.90;;;;;;4967028;28;20042;-75
2023/09/09 01:23:11;;;;;;;12.93;9.43;;;19.30;99.90;;;;;;4966916;28;20521;-75
2023/09/09 01:25:46;;;;;;;12.30;9.60;;;19.30;99.90;;;;;;4967718;28;20117;-75
2023/09/09 01:28:27;;;;;;;14.93;9.65;;;19.30;99.90;;;;;;4952485;29;20362;-75
2023/09/09 01:30:56;;;;;;;13.95;9.35;;;19.20;99.90;;;;;;4951986;29;20027;-75
2023/09/09 01:33:21;;;;;;;14.70;9.93;;;19.20;99.90;;;;;;4952675;29;20055;-74
2023/09/09 01:35:47;;;;;;;13.20;9.57;;;19.20;99.90;;;;;;4952159;28;20279;-74
2023/09/09 01:38:25;;;;;;;10.95;9.00;;;19.20;99.90;;;;;;4952238;28;20045;-74
2023/09/09 01:40:57;;;;;;;13.10;10.20;;;19.20;99.90;;;;;;4953092;29;20094;-74
2023/09/09 01:43:25;;;;;;;11.95;9.48;;;19.10;99.90;;;;;;4950899;28;20019;-75
2023/09/09 01:45:57;;;;;;;12.90;10.10;;;19.10;99.90;;;;;;4949894;28;20022;-75
2023/09/09 01:48:29;;;;;;;12.10;8.85;;;19.10;99.90;;;;;;4951247;28;20038;-75
2023/09/09 01:51:01;;;;;;;11.95;9.10;;;19.10;99.90;;;;;;4950773;29;20512;-74
2023/09/09 01:53:26;;;;;;;15.88;9.38;;;19.10;99.90;;;;;;4950493;29;20147;-74
2023/09/09 01:56:01;;;;;;;12.45;9.70;;;19.10;99.90;;;;;;4951169;28;20106;-74
2023/09/09 01:58:29;;;;;;;12.60;9.88;;;19.10;99.90;;;;;;4949112;29;20062;-74
2023/09/09 02:00:58;;;;;;;11.45;9.25;;;19.10;99.90;;;;;;4967155;28;20019;-75
2023/09/09 02:03:30;;;;;;;12.40;9.15;;;19.10;99.90;;;;;;4966076;28;20027;-74
2023/09/09 02:05:58;;;;;;;15.85;9.95;;;19.10;99.90;;;;;;4949107;28;20617;-74
2023/09/09 02:08:30;;;;;;;12.00;8.23;;;19.10;99.90;;;;;;4965048;28;20043;-76
2023/09/09 02:10:56;;;;;;;15.88;8.43;;;19.10;99.90;;;;;;4949513;28;20487;-75
2023/09/09 02:13:21;;;;;;;12.45;9.45;;;19.10;99.90;;;;;;4949942;29;20034;-75
2023/09/09 02:15:47;;;;;;;11.63;9.00;;;19.00;99.90;;;;;;4949631;28;20505;-75
2023/09/09 02:18:16;;;;;;;10.70;8.48;;;19.10;99.90;;;;;;4952796;29;20098;-75
2023/09/09 02:20:42;;;;;;;15.93;9.75;;;19.00;99.90;;;;;;4952373;29;20077;-75
2023/09/09 02:23:13;;;;;;;17.92;9.25;;;19.00;99.90;;;;;;4963843;28;20023;-76
2023/09/09 02:25:48;;;;;;;12.60;9.15;;;18.90;99.90;;;;;;4960495;28;20036;-75
2023/09/09 02:28:14;;;;;;;11.57;8.65;;;18.90;99.90;;;;;;4951807;28;20383;-74
2023/09/09 02:30:43;;;;;;;10.95;8.65;;;18.90;99.90;;;;;;4948089;28;20102;-74
2023/09/09 02:33:09;;;;;;;12.18;9.02;;;18.90;99.90;;;;;;4950882;28;20042;-75
2023/09/09 02:35:44;;;;;;;16.23;8.68;;;18.90;99.90;;;;;;4964901;28;20487;-74
2023/09/09 02:38:10;;;;;;;13.15;9.45;;;18.90;99.90;;;;;;4951341;29;20081;-74
2023/09/09 02:40:35;;;;;;;10.27;8.73;;;18.80;99.90;;;;;;4952959;28;20474;-74
2023/09/09 02:43:04;;;;;;;14.70;8.88;;;18.80;99.90;;;;;;4951461;28;20073;-74
2023/09/09 02:45:30;;;;;;;12.82;9.23;;;18.80;99.90;;;;;;4949553;29;20390;-74
2023/09/09 02:47:55;;;;;;;14.80;9.07;;;18.70;99.90;;;;;;4949940;29;20023;-75
2023/09/09 02:50:24;;;;;;;11.35;8.90;;;18.70;99.90;;;;;;4953449;28;20037;-75
2023/09/09 02:52:50;;;;;;;10.75;8.48;;;18.70;99.90;;;;;;4950514;28;20102;-75
2023/09/09 02:55:18;;;;;;;13.32;9.13;;;18.60;99.90;;;;;;4951048;28;20070;-75
2023/09/09 02:57:48;;;;;;;12.52;9.70;;;18.60;99.90;;;;;;4950321;28;20390;-74
2023/09/09 03:00:14;;;;;;;12.25;8.65;;;18.70;99.90;;;;;;4952948;28;20036;-74
2023/09/09 03:02:43;;;;;;;13.10;8.50;;;18.70;99.90;;;;;;4950044;29;20076;-75
2023/09/09 03:05:11;;;;;;;11.13;9.45;;;18.70;99.90;;;;;;4950417;29;20023;-74
2023/09/09 03:07:38;;;;;;;12.77;8.93;;;18.70;99.90;;;;;;4951272;28;20015;-74
2023/09/09 03:10:04;;;;;;;10.13;8.57;;;18.60;99.90;;;;;;4950475;28;20119;-75
2023/09/09 03:12:30;;;;;;;13.48;9.65;;;18.60;99.90;;;;;;4947868;28;20058;-75
2023/09/09 03:15:08;;;;;;;13.27;8.85;;;18.60;99.90;;;;;;4949188;28;20023;-75
2023/09/09 03:17:39;;;;;;;12.68;8.93;;;18.60;99.90;;;;;;4949840;28;20422;-75
2023/09/09 03:20:08;;;;;;;14.48;9.25;;;18.60;99.90;;;;;;4966596;28;20133;-76
2023/09/09 03:22:34;;;;;;;12.15;8.73;;;18.60;99.90;;;;;;4950026;28;20070;-75
2023/09/09 03:25:00;;;;;;;14.18;9.50;;;18.50;99.90;;;;;;4951514;28;20023;-76
2023/09/09 03:27:32;;;;;;;15.30;9.88;;;18.50;99.90;;;;;;4966118;28;20024;-75
2023/09/09 03:30:03;;;;;;;11.95;9.05;;;18.40;99.90;;;;;;4951267;28;20505;-75
2023/09/09 03:32:29;;;;;;;12.00;9.00;;;18.50;99.90;;;;;;4949340;28;20030;-75
2023/09/09 03:34:55;;;;;;;11.18;8.30;;;18.40;99.90;;;;;;4951722;28;20027;-75
2023/09/09 03:37:27;;;;;;;12.63;8.55;;;18.40;99.90;;;;;;4965977;28;20067;-75
2023/09/09 03:39:52;;;;;;;12.60;8.77;;;18.40;99.90;;;;;;4951740;28;20038;-75
2023/09/09 03:42:18;;;;;;;12.25;8.82;;;18.40;99.90;;;;;;4946052;28;20023;-75
2023/09/09 03:44:46;;;;;;;11.88;9.20;;;18.40;99.90;;;;;;4951369;28;20078;-75
2023/09/09 03:47:18;;;;;;;11.30;9.40;;;18.40;99.90;;;;;;4964695;28;20119;-75
2023/09/09 03:49:44;;;;;;;13.30;9.95;;;18.30;99.90;;;;;;4949035;28;20023;-75
2023/09/09 03:52:09;;;;;;;10.50;8.80;;;18.30;99.90;;;;;;4951722;28;20031;-75
2023/09/09 03:54:41;;;;;;;13.40;10.07;;;18.40;99.90;;;;;;4950748;28;20461;-75
2023/09/09 03:57:06;;;;;;;12.55;8.98;;;18.40;99.90;;;;;;4948683;28;20413;-76
2023/09/09 03:59:33;;;;;;;12.70;9.57;;;18.40;99.90;;;;;;4947089;29;20031;-76
2023/09/09 04:02:10;;;;;;;11.02;9.13;;;18.40;99.90;;;;;;4949980;28;20031;-75
2023/09/09 04:04:45;;;;;;;14.05;9.80;;;18.40;99.90;;;;;;4951485;28;20015;-74
2023/09/09 04:07:14;;;;;;;14.13;8.95;;;18.30;99.90;;;;;;4965587;28;20422;-74
2023/09/09 04:09:40;;;;;;;13.02;8.90;;;18.30;99.90;;;;;;4950035;28;20051;-74
2023/09/09 04:12:16;;;;;;;12.63;9.15;;;18.30;99.90;;;;;;4947611;28;20023;-74
2023/09/09 04:14:44;;;;;;;12.95;9.68;;;18.30;99.90;;;;;;4950697;28;20035;-74
2023/09/09 04:17:10;;;;;;;10.40;8.15;;;18.30;99.90;;;;;;4951001;28;20023;-74
2023/09/09 04:19:42;;;;;;;13.85;9.07;;;18.20;99.90;;;;;;4961728;28;20474;-74
2023/09/09 04:22:07;;;;;;;13.10;9.48;;;18.20;99.90;;;;;;4951954;29;20078;-74
2023/09/09 04:24:33;;;;;;;12.60;9.27;;;18.20;99.90;;;;;;4949576;28;20024;-75
2023/09/09 04:27:02;;;;;;;15.48;9.27;;;18.20;99.90;;;;;;4950065;28;20038;-74
2023/09/09 04:29:28;;;;;;;10.85;8.93;;;18.20;99.90;;;;;;4950748;28;20027;-74
2023/09/09 04:31:53;;;;;;;10.02;8.88;;;18.10;99.90;;;;;;4952587;28;20497;-75
2023/09/09 04:34:22;;;;;;;12.35;9.15;;;18.10;99.90;;;;;;4955511;29;20059;-75
2023/09/09 04:36:48;;;;;;;13.13;9.25;;;18.10;99.90;;;;;;4954446;28;20035;-75
2023/09/09 04:39:13;;;;;;;11.25;8.98;;;18.10;99.90;;;;;;4954938;28;20050;-75
2023/09/09 04:41:43;;;;;;;12.45;9.50;;;18.10;99.90;;;;;;4952180;28;20034;-75
2023/09/09 04:44:14;;;;;;;12.13;8.73;;;18.00;99.90;;;;;;4952436;28;20041;-75
2023/09/09 04:46:43;;;;;;;10.18;8.18;;;18.00;99.90;;;;;;4954144;28;20077;-75
2023/09/09 04:49:08;;;;;;;16.15;9.60;;;18.00;99.90;;;;;;4950411;29;20042;-75
2023/09/09 04:51:34;;;;;;;13.95;9.85;;;18.00;99.90;;;;;;4954290;28;20053;-75
2023/09/09 04:53:59;;;;;;;13.45;8.95;;;18.00;99.90;;;;;;4953153;28;20027;-75
2023/09/09 04:56:25;;;;;;;13.93;9.30;;;18.00;99.90;;;;;;4953136;28;20490;-75
2023/09/09 04:58:51;;;;;;;16.08;10.52;;;18.00;99.90;;;;;;4954416;29;20027;-75
2023/09/09 05:01:19;;;;;;;11.55;9.82;;;17.90;99.90;;;;;;4954752;29;20030;-75
2023/09/09 05:03:45;;;;;;;15.77;9.85;;;17.90;99.90;;;;;;4954248;28;20030;-75
2023/09/09 05:06:14;;;;;;;14.18;9.77;;;17.90;99.90;;;;;;4954456;28;20019;-75
2023/09/09 05:08:46;;;;;;;12.15;9.73;;;17.90;99.90;;;;;;4953180;29;20458;-75
2023/09/09 05:11:14;;;;;;;14.18;10.13;;;17.90;99.90;;;;;;4953731;29;20031;-75
2023/09/09 05:13:40;;;;;;;13.98;10.20;;;17.90;99.90;;;;;;4953969;29;20397;-74
2023/09/09 05:16:06;;;;;;;15.10;9.88;;;18.00;99.90;;;;;;4954650;28;20020;-75
2023/09/09 05:18:31;;;;;;;13.27;10.65;;;18.00;99.90;;;;;;4954963;29;20038;-75
2023/09/09 05:20:57;;;;;;;13.85;9.63;;;18.00;99.90;;;;;;4953496;29;20104;-74
2023/09/09 05:23:26;;;;;;;12.32;9.27;;;18.00;99.90;;;;;;4951965;28;20042;-74
2023/09/09 05:25:51;;;;;;;10.70;8.85;;;18.00;99.90;;;;;;4954776;29;20023;-74
2023/09/09 05:28:17;;;;;;;11.13;8.75;;;18.00;99.90;;;;;;4953399;28;20087;-74
2023/09/09 05:30:42;;;;;;;13.23;9.63;;;18.10;99.90;;;;;;4964192;28;20027;-74
2023/09/09 05:33:08;;;;;;;12.85;9.88;;;18.10;99.90;;;;;;4949195;28;20223;-74
2023/09/09 05:35:34;;;;;;;16.90;9.18;;;18.10;99.90;;;;;;4951832;29;20038;-74
2023/09/09 05:38:03;;;;;;;13.77;10.13;;;18.20;99.90;;;;;;4949851;28;20111;-74
2023/09/09 05:40:31;;;;;;;15.43;10.85;;;18.20;99.90;;;;;;4952085;28;20450;-75
2023/09/09 05:42:57;;;;;;;14.07;9.85;;;18.20;99.90;;;;;;4964439;28;20031;-75
2023/09/09 05:45:28;;;;;;;12.13;9.55;;;18.30;99.90;;;;;;4952010;28;20025;-75
2023/09/09 05:47:54;;;;;;;12.82;9.13;;;18.30;99.90;;;;;;4953276;28;20520;-75
2023/09/09 05:50:20;;;;;;;12.90;10.38;;;18.40;99.90;;;;;;4967311;28;20020;-75
2023/09/09 05:52:45;;;;;;;16.30;10.10;;;18.50;99.90;;;;;;4951923;28;20023;-75
2023/09/09 05:55:14;;;;;;;12.15;9.98;;;18.50;99.90;;;;;;4948617;28;20122;-75
2023/09/09 05:57:44;;;;;;;19.27;11.32;;;18.60;99.90;;;;;;4952376;28;20035;-73
2023/09/09 06:00:10;;;;;;;15.70;10.90;;;18.60;99.90;;;;;;4952387;28;20106;-74
2023/09/09 06:02:44;;;;;;;13.27;10.77;;;18.70;99.90;;;;;;4950218;29;20086;-75
2023/09/09 06:05:10;;;;;;;15.65;11.15;;;18.70;99.90;;;;;;4953333;29;20019;-75
2023/09/09 06:07:39;;;;;;;15.13;11.98;;;18.70;99.90;;;;;;4952178;28;20478;-75
2023/09/09 06:10:05;;;;;;;16.10;12.25;;;18.80;99.90;;;;;;4952435;28;20039;-75
2023/09/09 06:12:37;;;;;;;16.67;12.15;;;18.80;99.90;;;;;;4952794;29;20035;-75
2023/09/09 06:15:03;;;;;;;15.38;11.23;;;18.90;99.90;;;;;;4952928;28;20033;-75
2023/09/09 06:17:29;;;;;;;15.30;11.25;;;18.90;99.90;;;;;;4950637;28;20039;-75
2023/09/09 06:19:54;;;;;;;16.35;11.85;;;18.90;99.90;;;;;;4953381;29;20027;-75
2023/09/09 06:22:20;;;;;;;14.57;11.10;;;19.00;99.90;;;;;;4952268;29;20514;-75
2023/09/09 06:24:45;;;;;;;14.65;10.73;;;19.00;99.90;;;;;;4955760;28;20071;-75
2023/09/09 06:27:11;;;;;;;19.75;11.63;;;19.00;99.90;;;;;;4949129;28;20027;-74
2023/09/09 06:29:37;;;;;;;13.32;11.35;;;19.10;99.90;;;;;;4953338;28;20122;-74
2023/09/09 06:32:03;;;;;;;14.75;10.80;;;19.00;99.90;;;;;;4948848;28;20023;-75
2023/09/09 06:34:29;;;;;;;16.27;11.77;;;19.10;99.90;;;;;;4968114;28;20126;-75
2023/09/09 06:36:54;;;;;;;15.35;11.45;;;19.10;99.90;;;;;;4952179;28;20106;-76
2023/09/09 06:39:23;;;;;;;17.80;11.35;;;19.10;99.90;;;;;;4949999;28;20024;-75
2023/09/09 06:41:54;;;;;;;17.67;10.75;;;19.20;99.90;;;;;;4951399;29;20098;-74
2023/09/09 06:44:20;;;;;;;17.90;11.75;;;19.20;99.90;;;;;;4950125;29;20042;-74
2023/09/09 06:46:49;;;;;;;14.63;10.95;;;19.20;99.90;;;;;;4953122;28;20486;-76
2023/09/09 06:49:20;;;;;;;13.70;10.82;;;19.30;99.90;;;;;;4949944;28;20035;-74
2023/09/09 06:51:46;;;;;;;15.52;12.00;;;19.40;99.90;;;;;;4949408;29;20031;-74
2023/09/09 06:54:18;;;;;;;14.25;11.93;;;19.40;99.90;;;;;;4964155;28;20115;-74
2023/09/09 06:56:44;;;;;;;13.50;11.15;;;19.40;99.90;;;;;;4965496;28;20039;-74
2023/09/09 06:59:09;;;;;;;14.73;10.52;;;19.50;99.90;;;;;;4948883;28;20043;-74
2023/09/09 07:01:35;;;;;;;15.75;11.70;;;19.50;99.90;;;;;;4950107;28;20503;-74
2023/09/09 07:04:01;;;;;;;14.70;11.38;;;19.60;99.90;;;;;;4948868;28;20498;-74
2023/09/09 07:06:39;;;;;;;19.23;11.90;;;19.70;99.90;;;;;;4952511;28;20022;-74
2023/09/09 07:09:09;;;;;;;16.80;11.55;;;19.80;99.90;;;;;;4949129;29;20117;-75
2023/09/09 07:11:35;;;;;;;18.30;11.82;;;19.80;99.90;;;;;;4944902;29;20031;-75
2023/09/09 07:14:00;;;;;;;15.02;11.18;;;19.90;99.90;;;;;;4952223;28;20031;-75
2023/09/09 07:16:30;;;;;;;16.33;11.90;;;19.90;99.90;;;;;;4948303;28;20089;-75
2023/09/09 07:18:57;;;;;;;20.65;12.43;;;20.00;99.90;;;;;;4951043;29;20113;-75
2023/09/09 07:21:25;;;;;;;14.55;11.68;;;20.00;99.90;;;;;;4950670;29;20031;-74
2023/09/09 07:23:51;;;;;;;17.38;12.68;;;20.10;99.90;;;;;;4949902;28;20106;-75
2023/09/09 07:26:17;;;;;;;17.05;11.45;;;20.20;99.90;;;;;;4951039;28;20490;-74
2023/09/09 07:28:43;;;;;;;17.25;11.07;;;20.20;99.90;;;;;;4948831;28;20028;-76
2023/09/09 07:31:13;;;;;;;19.20;11.30;;;20.30;99.90;;;;;;4949315;28;20061;-76
2023/09/09 07:33:44;;;;;;;15.35;10.70;;;20.30;99.90;;;;;;4945891;28;20066;-76
2023/09/09 07:36:10;;;;;;;15.32;11.68;;;20.40;99.90;;;;;;4949725;28;20039;-76
2023/09/09 07:38:39;;;;;;;21.50;11.75;;;20.50;99.90;;;;;;4949048;28;20034;-75
2023/09/09 07:41:07;;;;;;;13.80;11.13;;;20.50;99.90;;;;;;4951300;29;20398;-76
2023/09/09 07:43:33;;;;;;;15.88;11.27;;;20.50;99.90;;;;;;4951176;28;20090;-76
2023/09/09 07:45:58;;;;;;;14.05;11.90;;;20.70;99.90;;;;;;4951097;29;20055;-76
2023/09/09 07:48:25;;;;;;;14.65;9.98;;;20.80;99.90;;;;;;4951086;28;20794;-76
2023/09/09 07:50:59;;;;;;;13.05;10.23;;;20.80;99.90;;;;;;4950589;28;20486;-75
2023/09/09 07:53:33;;;;;;;13.32;10.18;;;20.90;99.90;;;;;;4949317;28;20030;-75
2023/09/09 07:56:05;;;;;;;14.23;10.00;;;21.00;99.90;;;;;;4951543;28;20418;-76
2023/09/09 07:58:30;;;;;;;11.57;9.55;;;21.00;99.90;;;;;;4950916;28;20494;-76
2023/09/09 08:01:05;;;;;;;13.68;10.52;;;21.10;99.90;;;;;;4964317;28;20034;-77
2023/09/09 08:03:34;;;;;;;14.35;10.15;;;21.10;99.90;;;;;;4948613;28;20023;-76
2023/09/09 08:06:06;;;;;;;13.80;10.00;;;21.20;99.90;;;;;;4951703;28;20508;-76
2023/09/09 08:08:37;;;;;;;11.15;9.50;;;21.30;99.90;;;;;;4955103;28;20027;-76
2023/09/09 08:11:17;;;;;;;12.18;9.25;;;21.30;99.90;;;;;;4953877;28;20046;-77
2023/09/09 08:13:45;;;;;;;12.13;9.30;;;21.40;99.90;;;;;;4968611;28;20525;-77
2023/09/09 08:16:11;;;;;;;13.23;10.05;;;21.50;99.90;;;;;;4952955;28;20058;-77
2023/09/09 08:18:40;;;;;;;12.40;9.57;;;21.60;99.90;;;;;;4954353;29;20063;-76
2023/09/09 08:21:05;;;;;;;13.63;8.80;;;21.60;99.90;;;;;;4956356;29;20108;-76
2023/09/09 08:23:40;;;;;;;12.98;9.52;;;21.70;99.90;;;;;;4955243;29;20087;-77
2023/09/09 08:26:12;;;;;;;12.80;10.45;;;21.80;99.90;;;;;;4952692;28;20482;-76
2023/09/09 08:28:39;;;;;;;12.32;8.68;;;21.90;99.90;;;;;;4969197;28;20080;-76
2023/09/09 08:31:11;;;;;;;11.00;9.38;;;22.00;99.90;;;;;;4955292;28;20478;-76
2023/09/09 08:33:45;;;;;;;12.75;10.32;;;22.10;99.90;;;;;;4950450;29;20036;-75
2023/09/09 08:36:17;;;;;;;11.55;9.57;;;22.10;99.90;;;;;;4952771;29;20390;-76
2023/09/09 08:38:42;;;;;;;13.95;8.90;;;22.20;99.90;;;;;;4955041;28;20058;-75
2023/09/09 08:41:21;;;;;;;12.65;9.75;;;22.30;99.90;;;;;;4952105;28;20103;-75
2023/09/09 08:44:11;;;;;;;11.93;9.05;;;22.40;99.90;;;;;;4951600;29;20098;-76
2023/09/09 08:46:43;;;;;;;11.45;9.23;;;22.50;99.90;;;;;;4966569;28;20031;-76
2023/09/09 08:49:28;;;;;;;13.38;9.35;;;22.50;99.90;;;;;;4964800;28;20122;-76
2023/09/09 08:52:24;;;;;;;12.18;9.02;;;22.70;99.90;;;;;;4954001;28;20035;-77
2023/09/09 08:54:51;;;;;;;10.90;8.88;;;22.70;99.90;;;;;;4953116;28;20035;-77
2023/09/09 08:57:17;;;;;;;12.70;9.20;;;22.90;99.90;;;;;;4968420;28;20035;-78
2023/09/09 08:59:47;;;;;;;12.20;8.93;;;22.90;99.90;;;;;;4952166;28;20272;-76
2023/09/09 09:02:22;;;;;;;13.10;9.48;;;23.00;99.90;;;;;;4954229;28;20147;-76
2023/09/09 09:04:52;;;;;;;11.52;9.70;;;23.10;99.90;;;;;;4964165;28;20503;-77
2023/09/09 09:07:27;;;;;;;11.88;8.88;;;23.20;99.90;;;;;;4954081;28;20458;-77
2023/09/09 09:09:54;;;;;;;10.52;8.27;;;23.20;99.90;;;;;;4952870;29;20027;-78
2023/09/09 09:12:21;;;;;;;11.43;8.82;;;23.30;99.90;;;;;;4965844;28;20034;-78
2023/09/09 09:14:47;;;;;;;13.13;9.02;;;23.40;99.90;;;;;;4966321;28;20023;-77
2023/09/09 09:17:20;;;;;;;11.05;9.43;;;23.50;99.90;;;;;;4952688;28;20124;-77
2023/09/09 09:19:51;;;;;;;10.47;8.53;;;23.60;99.90;;;;;;4952435;28;20034;-77
2023/09/09 09:22:17;;;;;;;12.52;9.63;;;23.70;99.90;;;;;;4951706;28;20328;-76
2023/09/09 09:24:46;;;;;;;10.57;8.90;;;23.70;99.90;;;;;;4953319;28;20126;-76
2023/09/09 09:27:13;;;;;;;11.40;8.60;;;23.80;99.90;;;;;;4954504;28;20653;-77
2023/09/09 09:29:47;;;;;;;15.75;9.38;;;23.80;99.90;;;;;;4951504;29;20053;-77
2023/09/09 09:32:16;;;;;;;10.75;8.48;;;23.90;99.90;;;;;;4953532;28;20027;-76
2023/09/09 09:34:47;;;;;;;15.05;9.85;;;24.00;99.90;;;;;;4952794;28;20042;-76
2023/09/09 09:37:16;;;;;;;13.85;9.60;;;24.10;99.90;;;;;;4951574;28;20169;-76
2023/09/09 09:39:43;;;;;;;13.57;9.70;;;24.10;99.90;;;;;;4964414;28;20398;-76
2023/09/09 09:42:12;;;;;;;11.85;9.30;;;24.20;99.90;;;;;;4950451;28;20027;-76
2023/09/09 09:44:43;;;;;;;10.98;8.38;;;24.30;99.90;;;;;;4951599;29;20026;-76
2023/09/09 09:47:18;;;;;;;10.82;8.30;;;24.40;99.90;;;;;;4966567;28;20086;-77
2023/09/09 09:49:44;;;;;;;13.20;8.98;;;24.50;99.90;;;;;;4966608;28;20062;-77
2023/09/09 09:52:23;;;;;;;12.68;8.43;;;24.50;99.90;;;;;;4953420;28;20042;-77
2023/09/09 09:54:53;;;;;;;12.68;8.30;;;24.60;99.90;;;;;;4949995;28;20459;-75
2023/09/09 09:57:21;;;;;;;15.88;9.35;;;24.60;99.90;;;;;;4951080;28;20054;-77
2023/09/09 09:59:47;;;;;;;11.38;8.50;;;24.70;99.90;;;;;;4949839;28;20023;-77
2023/09/09 10:02:20;;;;;;;9.57;8.20;;;24.80;99.90;;;;;;4952248;28;20050;-77
2023/09/09 10:04:51;;;;;;;9.98;7.38;;;24.90;99.90;;;;;;4952535;28;20378;-77
2023/09/09 10:07:35;;;;;;;10.55;8.18;;;25.00;99.90;;;;;;4949519;29;20042;-77
2023/09/09 10:10:07;;;;;;;10.23;7.97;;;25.00;99.90;;;;;;4949774;29;20554;-76
2023/09/09 10:12:46;;;;;;;11.18;7.35;;;25.10;99.90;;;;;;4963746;28;20041;-76
2023/09/09 10:15:21;;;;;;;8.85;7.95;;;25.10;99.90;;;;;;4951548;29;20042;-76
2023/09/09 10:17:50;;;;;;;11.43;7.88;;;25.10;99.90;;;;;;4951580;28;20027;-76
2023/09/09 10:20:17;;;;;;;9.27;8.02;;;25.20;99.90;;;;;;4952105;28;20031;-76
2023/09/09 10:22:44;;;;;;;10.50;8.10;;;25.20;99.90;;;;;;4950776;28;20020;-77
2023/09/09 10:25:14;;;;;;;8.68;7.70;;;25.30;99.90;;;;;;4952924;28;20562;-77
2023/09/09 10:27:41;;;;;;;9.13;8.07;;;25.40;99.90;;;;;;4950960;29;20027;-77
2023/09/09 10:30:14;;;;;;;9.10;7.18;;;25.40;99.90;;;;;;4949115;28;20050;-76
2023/09/09 10:32:45;;;;;;;9.27;7.47;;;25.50;99.90;;;;;;4948936;28;20034;-76
2023/09/09 10:35:17;;;;;;;8.02;6.47;;;25.60;99.90;;;;;;4949498;28;20031;-76
2023/09/09 10:37:46;;;;;;;8.13;7.32;;;25.60;99.90;;;;;;4951101;28;20032;-76
2023/09/09 10:40:14;;;;;;;9.60;7.35;;;25.70;99.90;;;;;;4949961;28;20478;-77
2023/09/09 10:42:43;;;;;;;8.52;7.30;;;25.70;99.90;;;;;;4950346;28;20028;-76
2023/09/09 10:45:32;;;;;;;9.35;6.97;;;25.70;99.90;;;;;;4950765;28;20058;-76
2023/09/09 10:48:21;;;;;;;9.23;7.85;;;25.70;99.90;;;;;;4949923;28;20058;-76
2023/09/09 10:50:51;;;;;;;10.82;7.68;;;25.70;99.90;;;;;;4950955;29;20045;-76
2023/09/09 10:53:25;;;;;;;12.38;8.23;;;25.70;99.90;;;;;;4947138;28;20114;-76
2023/09/09 10:55:58;;;;;;;9.32;7.38;;;25.80;99.90;;;;;;4949409;28;20564;-76
2023/09/09 10:58:39;;;;;;;8.82;7.88;;;25.80;99.90;;;;;;4962700;28;20038;-76
2023/09/09 11:01:33;;;;;;;10.43;8.50;;;25.90;99.90;;;;;;4951380;28;20036;-77
2023/09/09 11:03:59;;;;;;;9.45;7.85;;;26.00;99.90;;;;;;4950241;28;20023;-77
2023/09/09 11:06:33;;;;;;;11.10;7.95;;;26.00;99.90;;;;;;4949570;28;20042;-76
2023/09/09 11:09:00;;;;;;;10.32;8.30;;;26.20;99.90;;;;;;4949112;28;20038;-76
2023/09/09 11:11:35;;;;;;;12.27;8.82;;;26.30;99.90;;;;;;4950236;28;20086;-76
2023/09/09 11:14:13;;;;;;;11.48;8.90;;;26.40;99.90;;;;;;4947855;28;20102;-75
2023/09/09 11:16:54;;;;;;;9.60;7.80;;;26.40;99.90;;;;;;4949638;29;20479;-76
2023/09/09 11:19:23;;;;;;;11.13;8.27;;;26.40;99.90;;;;;;4946581;28;20114;-77
2023/09/09 11:21:50;;;;;;;10.65;8.10;;;26.50;99.90;;;;;;4950364;28;20057;-77
2023/09/09 11:24:17;;;;;;;11.48;8.52;;;26.50;99.90;;;;;;4949266;28;20110;-76
2023/09/09 11:27:04;;;;;;;13.73;8.15;;;26.50;99.90;;;;;;4951899;28;20039;-77
2023/09/09 11:29:30;;;;;;;12.00;8.13;;;26.50;99.90;;;;;;4966083;28;20490;-77
2023/09/09 11:32:02;;;;;;;9.20;7.40;;;26.50;99.90;;;;;;4950340;28;20035;-76
2023/09/09 11:34:32;;;;;;;14.48;7.47;;;26.60;99.90;;;;;;4963298;28;20027;-77
2023/09/09 11:37:05;;;;;;;10.18;7.10;;;26.60;99.90;;;;;;4951378;28;20046;-77
2023/09/09 11:39:40;;;;;;;9.90;7.03;;;26.60;99.90;;;;;;4964827;28;20394;-77
2023/09/09 11:42:06;;;;;;;7.22;5.85;;;26.80;99.90;;;;;;4950647;28;20375;-77
2023/09/09 11:44:38;;;;;;;9.00;5.97;;;26.80;99.20;;;;;;4951785;28;20030;-76
2023/09/09 11:47:18;;;;;;;9.77;7.13;;;26.90;98.70;;;;;;4950937;28;20027;-76
2023/09/09 11:49:45;;;;;;;10.60;6.45;;;26.90;98.40;;;;;;4952330;28;20580;-76
2023/09/09 11:52:17;;;;;;;13.15;7.38;;;26.90;98.40;;;;;;4951598;28;20031;-77
2023/09/09 11:54:46;;;;;;;7.55;6.13;;;26.90;98.60;;;;;;4965094;28;20023;-77
2023/09/09 11:57:17;;;;;;;10.23;6.97;;;27.00;98.50;;;;;;4949207;29;20491;-76
2023/09/09 11:59:48;;;;;;;7.50;6.13;;;27.00;98.40;;;;;;4966035;28;20162;-77
2023/09/09 12:02:18;;;;;;;8.00;6.22;;;27.10;98.00;;;;;;4966163;28;20032;-76
2023/09/09 12:05:17;;;;;;;11.82;6.85;;;27.10;97.60;;;;;;4950366;29;20134;-76
2023/09/09 12:07:46;;;;;;;10.15;6.47;;;27.10;97.60;;;;;;4950471;28;20039;-77
2023/09/09 12:10:12;;;;;;;7.68;6.20;;;27.10;97.50;;;;;;4950986;28;20031;-77
2023/09/09 12:12:40;;;;;;;8.05;5.38;;;27.20;96.90;;;;;;4965052;28;20027;-77
2023/09/09 12:15:10;;;;;;;9.43;5.65;;;27.10;96.80;;;;;;4952952;28;20054;-77
2023/09/09 12:17:39;;;;;;;7.32;5.65;;;27.20;96.10;;;;;;4964777;28;20028;-76
2023/09/09 12:20:08;;;;;;;7.10;5.72;;;27.20;95.60;;;;;;4966739;28;20521;-77
2023/09/09 12:22:35;;;;;;;9.45;5.88;;;27.30;95.20;;;;;;4952254;29;20071;-77
2023/09/09 12:25:31;;;;;;;9.50;5.43;;;27.20;95.30;;;;;;4951924;28;20137;-76
2023/09/09 12:28:16;;;;;;;6.05;5.43;;;27.20;95.50;;;;;;4951002;28;20022;-74
2023/09/09 12:30:49;;;;;;;6.93;5.55;;;27.20;95.80;;;;;;4952375;28;20031;-77
2023/09/09 12:33:18;;;;;;;10.32;6.13;;;27.10;95.60;;;;;;4952488;29;20117;-77
2023/09/09 12:35:51;;;;;;;11.93;6.32;;;27.10;95.70;;;;;;4952148;28;20474;-77
2023/09/09 12:38:18;;;;;;;12.35;5.35;;;27.20;94.80;;;;;;4949466;28;20023;-77
2023/09/09 12:40:53;;;;;;;8.15;5.53;;;27.40;94.60;;;;;;4951087;29;20070;-76
2023/09/09 12:43:30;;;;;;;8.82;5.22;;;27.40;94.80;;;;;;4949738;29;20028;-76
2023/09/09 12:46:15;;;;;;;7.97;5.30;;;27.40;94.70;;;;;;4964384;28;20084;-76
2023/09/09 12:48:52;;;;;;;8.35;5.43;;;27.50;93.90;;;;;;4951127;29;20486;-76